Terminal Aerodrome Forecast
Issued by NWS

Home | Current Version | Previous Version | Text Only | Print | Product List | Glossary Off
Versions: 1 2 3 4 5 6 7 8 9 10 11 12 13 14 15

000
FTUS43 KICT 301700
TAFRSL
TAF
KRSL 301734Z 3018/3118 06008KT P6SM VCSH SCT035 OVC080
     FM302000 05007KT P6SM BKN080
     FM310000 VRB05KT P6SM SKC=

USA.gov is the U.S. government's official web portal to all federal, state and local government web resources and services.